Hlavní strana
METAR-TAF:

METAR-TAF

Letiště :

Blue Ridge Airport

Martinsville, Virginie, Spojené státy americké

zeměpisná šířka: 36-38N, zeměpisná délka: 080-01W, výška: 287 m

Aktuální stav počasí

Zpráva byla vytvořena před 7 minutami, v 10:55 UTC
Bezvětří
Teplota 1°C
Vlhkost vzduchu 100%
Tlak 1024 hPa
Viditelnost: 8.0 km
Zataženo ve výšce 500 ft
slabé mrholení

METAR: KMTV 241055Z AUTO 00000KT 5SM -DZ OVC005 01/01 A3023 RMK AO2 P0001 T00060006

Čas: 06:02 (11:02 UTC)


TAF: chybějící

Stav a předpovědi počasí z více než 4 000 letišť (zprávy METAR a TAF).

Červené a žluté tečky na mapě představují dostupné meteorologické stanice.

Když kurzor umístíte na tečku, zobrazí se název stanice.

Pak kliknutím zobrazíte stav a předpověď počasí.

Chcete-li změnit mapu, kliknutím na zelené tlačítko se znaménkem +mapu přiblížíte, kliknutím na zelené tlačítko se znaménkem – mapu oddálíte a kliknutím na zelené šipky přejdete na sousední mapy.


METAR-TAF: